Time;durP1;ratioP1;P1;durP2;ratioP2;P2;SDS_P1;SDS_P2;PMS_P1;PMS_P2;Temp;Humidity;BMP_temperature;BMP_pressure;BME280_temperature;BME280_humidity;BME280_pressure;Samples;Min_cycle;Max_cycle;Signal;HPM_P1;HPM_P2
2020/12/22 00:00:06;;;;;;;205.27;72.72;;;-0.20;99.90;;;;;;4441770;28;661621;-63
2020/12/22 00:02:53;;;;;;;181.13;67.43;;;-0.20;99.90;;;;;;4460514;28;662158;-61
2020/12/22 00:05:40;;;;;;;186.07;70.77;;;-0.30;99.90;;;;;;4441364;28;662327;-61
2020/12/22 00:08:27;;;;;;;188.93;69.13;;;-0.30;99.90;;;;;;4457922;28;662639;-61
2020/12/22 00:11:15;;;;;;;189.93;70.53;;;-0.30;99.90;;;;;;4451484;28;661744;-62
2020/12/22 00:14:02;;;;;;;193.90;69.73;;;-0.30;99.90;;;;;;4456177;28;662462;-61
2020/12/22 00:16:49;;;;;;;205.65;71.45;;;-0.40;99.90;;;;;;4444347;28;661898;-62
2020/12/22 00:19:36;;;;;;;203.83;71.67;;;-0.40;99.90;;;;;;4463940;28;662026;-61
2020/12/22 00:22:23;;;;;;;196.63;70.93;;;-0.40;99.90;;;;;;4461367;28;661509;-61
2020/12/22 00:25:10;;;;;;;191.67;70.13;;;-0.40;99.90;;;;;;4438459;28;661633;-61
2020/12/22 00:27:58;;;;;;;191.17;68.17;;;-0.40;99.90;;;;;;4460954;28;662670;-61
2020/12/22 00:30:45;;;;;;;187.30;68.93;;;-0.40;99.90;;;;;;4435273;28;662048;-62
2020/12/22 00:33:32;;;;;;;195.47;69.07;;;-0.40;99.90;;;;;;4461704;28;663003;-61
2020/12/22 00:36:19;;;;;;;180.73;64.30;;;-0.40;99.90;;;;;;4446569;28;661596;-63
2020/12/22 00:39:06;;;;;;;181.50;65.13;;;-0.40;99.90;;;;;;4458601;28;661752;-61
2020/12/22 00:41:53;;;;;;;181.20;66.20;;;-0.40;99.90;;;;;;4453712;28;662273;-62
2020/12/22 00:44:41;;;;;;;192.63;65.33;;;-0.40;99.90;;;;;;4441802;28;661787;-61
2020/12/22 00:47:28;;;;;;;195.27;66.72;;;-0.40;99.90;;;;;;4453298;28;662942;-61
2020/12/22 00:50:15;;;;;;;191.33;67.13;;;-0.40;99.90;;;;;;4433637;28;662369;-61
2020/12/22 00:53:02;;;;;;;189.90;67.77;;;-0.40;99.90;;;;;;4461785;28;662258;-61
2020/12/22 00:56:02;;;;;;;177.23;67.53;;;-0.50;99.90;;;;;;4971502;27;131108;-61
2020/12/22 00:58:49;;;;;;;187.80;70.33;;;-0.50;99.90;;;;;;4467366;28;653707;-61
2020/12/22 01:01:36;;;;;;;189.67;68.03;;;-0.60;99.90;;;;;;4482623;27;654878;-61
2020/12/22 01:04:23;;;;;;;188.33;66.17;;;-0.60;99.90;;;;;;4487502;27;653415;-60
2020/12/22 01:07:10;;;;;;;181.00;64.90;;;-0.60;99.90;;;;;;4477868;27;653705;-60
2020/12/22 01:09:57;;;;;;;196.05;70.47;;;-0.70;99.90;;;;;;4494238;27;654947;-60
2020/12/22 01:12:45;;;;;;;195.65;68.63;;;-0.70;99.90;;;;;;4455051;27;654428;-62
2020/12/22 01:15:32;;;;;;;186.37;67.93;;;-0.70;99.90;;;;;;4498590;27;655010;-61
2020/12/22 01:18:19;;;;;;;192.07;66.37;;;-0.80;99.90;;;;;;4477818;27;654640;-62
2020/12/22 01:21:06;;;;;;;180.73;63.33;;;-0.80;99.90;;;;;;4515550;27;655425;-60
2020/12/22 01:23:53;;;;;;;183.07;65.43;;;-0.70;99.90;;;;;;4512467;27;655271;-60
2020/12/22 01:26:40;;;;;;;174.63;63.83;;;-0.70;99.90;;;;;;4481321;27;655355;-61
2020/12/22 01:29:27;;;;;;;188.20;66.57;;;-0.70;99.90;;;;;;4511186;27;656891;-60
2020/12/22 01:32:14;;;;;;;182.90;66.43;;;-0.70;99.90;;;;;;4487445;27;656045;-61
2020/12/22 01:35:01;;;;;;;183.23;64.50;;;-0.70;99.90;;;;;;4507726;27;656933;-60
2020/12/22 01:37:49;;;;;;;168.93;59.83;;;-0.70;99.90;;;;;;4509206;27;654938;-62
2020/12/22 01:40:36;;;;;;;179.90;61.77;;;-0.70;99.90;;;;;;4512746;27;655554;-61
2020/12/22 01:43:23;;;;;;;196.47;67.63;;;-0.70;99.90;;;;;;4513562;27;655753;-61
2020/12/22 01:46:11;;;;;;;182.63;66.03;;;-0.70;99.90;;;;;;4491181;27;655547;-60
2020/12/22 01:48:58;;;;;;;179.57;62.97;;;-0.80;99.90;;;;;;4501436;27;655189;-61
2020/12/22 01:51:45;;;;;;;185.57;61.67;;;-0.80;99.90;;;;;;4494024;27;656055;-61
2020/12/22 01:54:32;;;;;;;177.52;62.63;;;-0.80;99.90;;;;;;4494020;27;656765;-60
2020/12/22 01:57:19;;;;;;;166.80;64.27;;;-0.80;99.90;;;;;;4471830;27;655679;-62
2020/12/22 02:00:06;;;;;;;172.27;62.30;;;-0.90;99.90;;;;;;4504591;27;656568;-61
2020/12/22 02:02:54;;;;;;;185.23;63.80;;;-0.90;99.90;;;;;;4508825;27;655068;-61
2020/12/22 02:05:41;;;;;;;178.47;60.23;;;-0.90;99.90;;;;;;4480509;27;656914;-60
2020/12/22 02:08:27;;;;;;;182.73;60.90;;;-0.90;99.90;;;;;;4495807;27;656785;-60
2020/12/22 02:11:23;;;;;;;175.10;61.43;;;-1.00;99.90;;;;;;4480174;27;655577;-61
2020/12/22 02:14:11;;;;;;;172.20;59.33;;;-1.00;99.90;;;;;;4437124;27;657204;-61
2020/12/22 02:16:58;;;;;;;173.10;59.97;;;-1.00;99.90;;;;;;4497544;27;655329;-60
2020/12/22 02:19:46;;;;;;;169.40;56.43;;;-1.00;99.90;;;;;;4474898;27;655098;-60
2020/12/22 02:22:34;;;;;;;157.17;55.90;;;-1.00;99.90;;;;;;4491660;27;655194;-60
2020/12/22 02:25:21;;;;;;;160.87;57.90;;;-1.00;99.90;;;;;;4470102;27;657437;-61
2020/12/22 02:28:08;;;;;;;158.80;55.70;;;-1.00;99.90;;;;;;4488941;27;655811;-61
2020/12/22 02:30:55;;;;;;;184.30;59.17;;;-1.00;99.90;;;;;;4477536;27;655902;-61
2020/12/22 02:33:42;;;;;;;167.57;56.87;;;-1.00;99.90;;;;;;4505786;27;656071;-60
2020/12/22 02:36:29;;;;;;;157.87;57.17;;;-1.00;99.90;;;;;;4473758;27;655752;-61
2020/12/22 02:39:17;;;;;;;164.20;57.87;;;-1.00;99.90;;;;;;4492898;27;656365;-60
2020/12/22 02:42:04;;;;;;;157.13;57.23;;;-0.90;99.90;;;;;;4479887;27;655591;-62
2020/12/22 02:44:51;;;;;;;173.60;56.33;;;-0.90;99.90;;;;;;4493140;27;656334;-61
2020/12/22 02:47:38;;;;;;;170.27;58.10;;;-0.90;99.90;;;;;;4481987;27;655583;-61
2020/12/22 02:50:25;;;;;;;158.93;56.47;;;-0.90;99.90;;;;;;4472215;27;655580;-60
2020/12/22 02:53:12;;;;;;;154.17;53.47;;;-0.90;99.90;;;;;;4480542;27;656398;-60
2020/12/22 02:56:00;;;;;;;173.00;58.20;;;-0.90;99.90;;;;;;4472879;27;655425;-62
2020/12/22 02:58:50;;;;;;;139.33;49.60;;;-0.90;99.90;;;;;;4490867;27;656704;-60
2020/12/22 03:01:39;;;;;;;143.60;51.13;;;-0.90;99.90;;;;;;4473073;27;656771;-60
2020/12/22 03:04:26;;;;;;;136.87;48.63;;;-0.80;99.90;;;;;;4465180;27;656680;-61
2020/12/22 03:07:14;;;;;;;124.80;45.17;;;-0.80;99.90;;;;;;4490622;27;655756;-62
2020/12/22 03:10:01;;;;;;;117.93;42.37;;;-0.70;99.90;;;;;;4490582;27;657461;-61
2020/12/22 03:12:49;;;;;;;124.37;44.30;;;-0.70;99.90;;;;;;4492470;27;655311;-60
2020/12/22 03:15:36;;;;;;;120.43;43.03;;;-0.70;99.90;;;;;;4481259;27;656798;-60
2020/12/22 03:18:23;;;;;;;122.80;44.23;;;-0.60;99.90;;;;;;4487531;27;655524;-60
2020/12/22 03:21:10;;;;;;;136.87;49.70;;;-0.60;99.90;;;;;;4478202;27;655548;-60
2020/12/22 03:23:57;;;;;;;137.00;45.33;;;-0.60;99.90;;;;;;4501048;27;656474;-61
2020/12/22 03:26:44;;;;;;;128.13;45.83;;;-0.60;99.90;;;;;;4481111;27;655272;-62
2020/12/22 03:29:32;;;;;;;122.90;44.17;;;-0.70;99.90;;;;;;4497371;27;657071;-61
2020/12/22 03:32:19;;;;;;;127.68;45.38;;;-0.70;99.90;;;;;;4482742;27;655353;-61
2020/12/22 03:35:06;;;;;;;119.80;43.20;;;-0.70;99.90;;;;;;4504330;27;655819;-60
2020/12/22 03:37:53;;;;;;;129.40;43.27;;;-0.60;99.90;;;;;;4505093;27;656472;-61
2020/12/22 03:40:40;;;;;;;116.77;41.90;;;-0.50;99.90;;;;;;4470515;27;655416;-61
2020/12/22 03:43:27;;;;;;;118.47;42.03;;;-0.60;99.90;;;;;;4499690;27;657367;-61
2020/12/22 03:46:15;;;;;;;1944.13;117.60;;;-0.50;99.90;;;;;;4480240;27;656394;-61
2020/12/22 03:49:02;;;;;;;128.50;44.60;;;-0.50;99.90;;;;;;4488715;27;659712;-61
2020/12/22 03:51:49;;;;;;;122.77;44.73;;;-0.60;99.90;;;;;;4487778;27;656168;-61
2020/12/22 03:54:36;;;;;;;111.77;41.60;;;-0.50;99.90;;;;;;4502478;27;658451;-61
2020/12/22 03:57:23;;;;;;;104.13;37.70;;;-0.50;99.90;;;;;;4483786;27;656851;-61
2020/12/22 04:00:11;;;;;;;106.32;40.35;;;-0.50;99.90;;;;;;4476863;27;656469;-61
2020/12/22 04:02:59;;;;;;;122.23;41.37;;;-0.50;99.90;;;;;;4500269;27;656214;-61
2020/12/22 04:05:46;;;;;;;113.37;40.13;;;-0.40;99.90;;;;;;4473342;27;658135;-61
2020/12/22 04:08:34;;;;;;;116.13;41.57;;;-0.40;99.90;;;;;;4495556;27;656569;-61
2020/12/22 04:11:21;;;;;;;120.00;40.30;;;-0.40;99.90;;;;;;4465976;27;657327;-61
2020/12/22 04:14:08;;;;;;;105.70;37.50;;;-0.50;99.90;;;;;;4498870;27;656404;-60
2020/12/22 04:16:55;;;;;;;89.77;35.60;;;-0.50;99.90;;;;;;4468671;27;656858;-61
2020/12/22 04:19:43;;;;;;;111.03;38.17;;;-0.50;99.90;;;;;;4489665;27;656056;-60
2020/12/22 04:22:30;;;;;;;103.23;37.23;;;-0.40;99.90;;;;;;4466080;27;657571;-61
2020/12/22 04:25:17;;;;;;;111.23;39.13;;;-0.50;99.90;;;;;;4488777;27;657377;-61
2020/12/22 04:28:04;;;;;;;103.50;39.07;;;-0.30;99.90;;;;;;4470956;27;656513;-62
2020/12/22 04:30:51;;;;;;;94.53;36.00;;;-0.40;99.90;;;;;;4499812;27;658001;-61
2020/12/22 04:33:38;;;;;;;97.10;35.70;;;-0.40;99.90;;;;;;4482521;27;656052;-61
2020/12/22 04:36:26;;;;;;;105.45;37.95;;;-0.40;99.90;;;;;;4483622;27;655411;-61
2020/12/22 04:39:13;;;;;;;104.38;40.40;;;-0.40;99.90;;;;;;4481946;27;657797;-61
2020/12/22 04:42:00;;;;;;;114.03;40.80;;;-0.40;99.90;;;;;;4475906;27;656492;-61
2020/12/22 04:44:47;;;;;;;115.43;40.57;;;-0.40;99.90;;;;;;4489420;27;656577;-60
2020/12/22 04:47:34;;;;;;;120.27;40.77;;;-0.40;99.90;;;;;;4476401;27;656815;-62
2020/12/22 04:50:21;;;;;;;129.27;47.10;;;-0.30;99.90;;;;;;4484412;27;657654;-61
2020/12/22 04:53:09;;;;;;;130.63;45.90;;;-0.30;99.90;;;;;;4485282;27;656903;-61
2020/12/22 04:55:56;;;;;;;504.00;62.90;;;-0.30;99.90;;;;;;4476397;27;658180;-60
2020/12/22 04:58:43;;;;;;;118.00;41.27;;;-0.20;99.90;;;;;;4479951;27;656323;-60
2020/12/22 05:01:30;;;;;;;115.43;42.33;;;-0.20;99.90;;;;;;4470903;27;656818;-62
2020/12/22 05:04:17;;;;;;;112.17;41.33;;;-0.30;99.90;;;;;;4481771;27;657314;-61
2020/12/22 05:07:04;;;;;;;113.20;42.50;;;-0.20;99.90;;;;;;4468781;27;656818;-61
2020/12/22 05:09:52;;;;;;;110.90;41.13;;;-0.30;99.90;;;;;;4489074;27;656819;-61
2020/12/22 05:12:40;;;;;;;121.47;41.97;;;-0.20;99.90;;;;;;4472838;27;656457;-62
2020/12/22 05:15:27;;;;;;;111.43;42.70;;;-0.20;99.90;;;;;;4498615;27;657396;-61
2020/12/22 05:18:14;;;;;;;125.20;43.33;;;-0.10;99.90;;;;;;4482474;27;656587;-61
2020/12/22 05:21:01;;;;;;;121.10;44.40;;;-0.20;99.90;;;;;;4481299;27;658334;-61
2020/12/22 05:23:49;;;;;;;140.33;48.67;;;-0.20;99.90;;;;;;4495813;27;656540;-61
2020/12/22 05:26:37;;;;;;;133.00;48.60;;;-0.20;99.90;;;;;;4457988;27;657977;-61
2020/12/22 05:29:24;;;;;;;138.60;49.73;;;-0.20;99.90;;;;;;4486708;27;656365;-62
2020/12/22 05:32:11;;;;;;;160.55;56.78;;;-0.20;99.90;;;;;;4491887;27;657691;-61
2020/12/22 05:34:58;;;;;;;196.85;66.43;;;-0.20;99.90;;;;;;4481939;27;657822;-61
2020/12/22 05:37:46;;;;;;;218.73;74.40;;;-0.20;99.90;;;;;;4470945;27;657340;-62
2020/12/22 05:40:33;;;;;;;247.77;83.03;;;-0.10;99.90;;;;;;4480305;27;657247;-61
2020/12/22 05:43:21;;;;;;;203.70;69.60;;;-0.10;99.90;;;;;;4468968;27;658358;-61
2020/12/22 05:46:08;;;;;;;189.63;64.83;;;0.00;99.90;;;;;;4494039;27;658058;-61
2020/12/22 05:49:00;;;;;;;187.57;61.50;;;0.00;99.90;;;;;;4465758;27;656475;-61
2020/12/22 05:51:47;;;;;;;167.23;59.47;;;0.00;99.90;;;;;;4468669;27;657823;-61
2020/12/22 05:54:34;;;;;;;178.70;60.60;;;0.00;99.90;;;;;;4468605;27;656529;-62
2020/12/22 05:57:22;;;;;;;141.97;49.37;;;0.00;99.90;;;;;;4497822;27;657447;-61
2020/12/22 06:00:16;;;;;;;149.95;51.97;;;0.00;99.90;;;;;;4482805;27;656479;-62
2020/12/22 06:03:06;;;;;;;154.97;54.57;;;0.00;99.90;;;;;;4478366;27;656750;-61
2020/12/22 06:05:52;;;;;;;152.60;54.00;;;0.00;99.90;;;;;;4469526;27;656853;-61
2020/12/22 06:08:39;;;;;;;138.33;50.50;;;0.00;99.90;;;;;;4488198;27;656451;-62
2020/12/22 06:11:28;;;;;;;150.20;52.17;;;0.00;99.90;;;;;;4485696;27;658318;-61
2020/12/22 06:14:16;;;;;;;138.30;51.27;;;0.00;99.90;;;;;;4476882;27;656847;-61
2020/12/22 06:17:09;;;;;;;132.63;49.47;;;0.00;99.90;;;;;;4501803;27;656598;-61
2020/12/22 06:19:56;;;;;;;151.17;51.23;;;0.00;99.90;;;;;;4451394;27;657851;-61
2020/12/22 06:22:43;;;;;;;138.27;47.90;;;0.00;99.90;;;;;;4499674;27;656591;-61
2020/12/22 06:25:30;;;;;;;146.02;50.90;;;0.00;99.90;;;;;;4462289;27;656841;-61
2020/12/22 06:28:27;;;;;;;133.57;48.77;;;0.00;99.90;;;;;;4495015;27;657371;-60
2020/12/22 06:31:19;;;;;;;133.57;49.23;;;0.00;99.90;;;;;;4454509;27;656485;-62
2020/12/22 06:34:11;;;;;;;137.70;49.50;;;-0.10;99.90;;;;;;4462609;27;657390;-61
2020/12/22 06:36:58;;;;;;;130.30;50.07;;;-0.10;99.90;;;;;;4472329;27;658161;-61
2020/12/22 06:39:46;;;;;;;149.50;51.53;;;-0.10;99.90;;;;;;4466466;27;657776;-62
2020/12/22 06:42:46;;;;;;;136.57;49.07;;;-0.10;99.90;;;;;;4487317;27;658018;-61
2020/12/22 06:45:36;;;;;;;136.27;49.07;;;-0.20;99.90;;;;;;4469157;27;657654;-61
2020/12/22 06:48:24;;;;;;;133.68;50.25;;;-0.10;99.90;;;;;;4452656;27;657571;-61
2020/12/22 06:51:27;;;;;;;152.77;53.60;;;-0.10;99.90;;;;;;4477092;27;658459;-61
2020/12/22 06:54:41;;;;;;;152.40;53.23;;;-0.10;99.90;;;;;;4452433;27;658625;-62
2020/12/22 06:57:41;;;;;;;158.27;55.20;;;-0.10;99.90;;;;;;4401414;28;657576;-61
2020/12/22 07:00:40;;;;;;;149.90;53.28;;;-0.10;99.90;;;;;;4398736;28;658297;-61
2020/12/22 07:03:27;;;;;;;163.93;56.07;;;-0.10;99.90;;;;;;4389069;28;658297;-61
2020/12/22 07:06:14;;;;;;;159.73;54.07;;;-0.10;99.90;;;;;;4405766;28;657555;-61
2020/12/22 07:09:02;;;;;;;162.70;55.50;;;-0.10;99.90;;;;;;4415554;28;658582;-62
2020/12/22 07:11:49;;;;;;;177.07;58.43;;;0.00;99.90;;;;;;4393950;28;658460;-62
2020/12/22 07:14:39;;;;;;;158.07;55.37;;;0.00;99.90;;;;;;4414092;28;657715;-62
2020/12/22 07:17:26;;;;;;;166.23;57.20;;;0.00;99.90;;;;;;4393046;28;657048;-61
2020/12/22 07:20:13;;;;;;;183.23;59.87;;;0.10;99.90;;;;;;4425039;28;657061;-61
2020/12/22 07:23:00;;;;;;;195.70;62.00;;;0.10;99.90;;;;;;4401798;28;656685;-62
2020/12/22 07:25:48;;;;;;;200.17;64.23;;;0.20;99.90;;;;;;4414575;28;658073;-62
2020/12/22 07:28:35;;;;;;;150.77;55.30;;;0.30;99.90;;;;;;4402665;28;656644;-61
2020/12/22 07:31:22;;;;;;;172.03;60.53;;;0.40;99.90;;;;;;4424662;28;657462;-61
2020/12/22 07:34:09;;;;;;;174.90;59.97;;;0.40;99.90;;;;;;4414249;28;656382;-62
2020/12/22 07:37:03;;;;;;;168.20;57.63;;;0.40;99.90;;;;;;4468532;27;658171;-61
2020/12/22 07:39:50;;;;;;;164.23;54.20;;;0.40;99.90;;;;;;4457451;27;658829;-61
2020/12/22 07:42:38;;;;;;;178.50;58.47;;;0.40;99.90;;;;;;4491675;27;657693;-60
2020/12/22 07:45:25;;;;;;;202.80;62.67;;;0.40;99.90;;;;;;4469983;27;657165;-61
2020/12/22 07:48:12;;;;;;;203.05;65.03;;;0.50;99.90;;;;;;4496950;27;657307;-61
2020/12/22 07:50:59;;;;;;;185.37;60.73;;;0.50;99.90;;;;;;4478989;27;657337;-63
2020/12/22 07:53:46;;;;;;;178.20;60.23;;;0.60;99.90;;;;;;4484894;27;658138;-61
2020/12/22 07:56:34;;;;;;;174.77;58.40;;;0.60;99.90;;;;;;4494460;27;656423;-62
2020/12/22 07:59:22;;;;;;;189.70;66.17;;;0.70;99.90;;;;;;4459004;27;658842;-62
2020/12/22 08:02:09;;;;;;;242.95;73.45;;;0.70;99.90;;;;;;4476072;27;656576;-63
2020/12/22 08:04:56;;;;;;;200.93;68.20;;;0.80;99.90;;;;;;4483549;27;656804;-62
2020/12/22 08:07:45;;;;;;;197.20;64.37;;;0.80;99.90;;;;;;4493508;27;656437;-62
2020/12/22 08:10:35;;;;;;;179.83;60.07;;;0.80;99.90;;;;;;4463554;27;656923;-62
2020/12/22 08:13:23;;;;;;;184.95;60.08;;;0.80;99.90;;;;;;4470501;27;657916;-61
2020/12/22 08:16:11;;;;;;;181.20;59.10;;;0.80;99.90;;;;;;4471572;27;656759;-61
2020/12/22 08:18:58;;;;;;;175.93;62.37;;;0.80;99.90;;;;;;4480180;27;656694;-62
2020/12/22 08:21:46;;;;;;;170.80;57.80;;;0.80;99.90;;;;;;4462010;27;658114;-62
2020/12/22 08:24:34;;;;;;;136.33;51.90;;;0.90;99.90;;;;;;4483154;27;656496;-62
2020/12/22 08:27:21;;;;;;;159.57;57.20;;;0.90;99.90;;;;;;4470819;27;657943;-62
2020/12/22 08:30:18;;;;;;;180.65;60.25;;;0.90;99.90;;;;;;4485681;27;656823;-62
2020/12/22 08:33:06;;;;;;;149.83;52.53;;;0.90;99.90;;;;;;4438579;27;657240;-62
2020/12/22 08:35:53;;;;;;;152.33;55.97;;;0.90;99.90;;;;;;4484481;27;656792;-61
2020/12/22 08:38:40;;;;;;;172.70;61.13;;;1.00;99.90;;;;;;4483058;27;657035;-62
2020/12/22 08:41:27;;;;;;;160.33;57.80;;;1.10;99.90;;;;;;4488719;27;657415;-62
2020/12/22 08:44:14;;;;;;;146.85;54.13;;;1.10;99.90;;;;;;4475312;27;656660;-62
2020/12/22 08:47:10;;;;;;;140.93;55.87;;;1.00;99.90;;;;;;4488532;27;657944;-62
2020/12/22 08:50:08;;;;;;;146.33;53.77;;;1.10;99.90;;;;;;4466338;27;656876;-62
2020/12/22 08:52:55;;;;;;;134.60;51.60;;;1.10;99.90;;;;;;4441870;27;658446;-62
2020/12/22 08:55:42;;;;;;;144.57;51.85;;;1.20;99.90;;;;;;4495232;27;656558;-62
2020/12/22 08:58:29;;;;;;;142.18;52.72;;;1.20;99.90;;;;;;4480868;27;656432;-62
2020/12/22 09:01:20;;;;;;;156.15;56.47;;;1.30;99.90;;;;;;4499080;27;657096;-62
2020/12/22 09:04:07;;;;;;;126.37;48.20;;;1.30;99.90;;;;;;4470753;27;656813;-62
2020/12/22 09:06:55;;;;;;;133.20;49.30;;;1.30;99.90;;;;;;4475900;27;656840;-62
2020/12/22 09:09:42;;;;;;;123.67;47.90;;;1.50;99.90;;;;;;4495492;27;656743;-61
2020/12/22 09:12:29;;;;;;;142.97;52.67;;;1.60;99.90;;;;;;4467611;27;656602;-63
2020/12/22 09:15:17;;;;;;;136.63;51.63;;;1.60;99.90;;;;;;4485549;27;657412;-61
2020/12/22 09:18:16;;;;;;;121.93;46.97;;;1.60;99.90;;;;;;4480788;27;656593;-63
2020/12/22 09:21:03;;;;;;;115.87;42.60;;;1.70;99.90;;;;;;4476830;27;657219;-61
2020/12/22 09:23:51;;;;;;;116.27;45.60;;;1.80;99.90;;;;;;4472041;27;656556;-62
2020/12/22 09:26:38;;;;;;;133.33;51.33;;;1.90;99.90;;;;;;4494674;27;657148;-62
2020/12/22 09:29:25;;;;;;;123.43;50.00;;;2.00;99.90;;;;;;4475992;27;656503;-63
2020/12/22 09:32:12;;;;;;;132.57;52.60;;;2.00;99.90;;;;;;4493011;27;657991;-62
2020/12/22 09:34:59;;;;;;;137.50;52.38;;;2.10;99.90;;;;;;4472474;27;656413;-63
2020/12/22 09:37:46;;;;;;;148.45;55.45;;;2.10;99.90;;;;;;4496164;27;657817;-61
2020/12/22 09:40:34;;;;;;;144.43;51.33;;;2.20;99.90;;;;;;4493837;27;656487;-61
2020/12/22 09:43:21;;;;;;;141.13;53.08;;;2.20;99.90;;;;;;4469896;27;657308;-62
2020/12/22 09:46:08;;;;;;;123.43;46.28;;;2.30;99.90;;;;;;4491690;27;657596;-61
2020/12/22 09:48:55;;;;;;;115.60;44.47;;;2.40;99.90;;;;;;4470470;27;656617;-61
2020/12/22 09:51:42;;;;;;;107.60;41.42;;;2.40;99.90;;;;;;4483920;27;657364;-62
2020/12/22 09:54:29;;;;;;;112.38;42.42;;;2.50;99.90;;;;;;4478855;27;657325;-62
2020/12/22 09:57:17;;;;;;;97.97;38.72;;;2.60;99.90;;;;;;4490399;27;656271;-61
2020/12/22 10:00:05;;;;;;;104.90;41.13;;;2.60;99.90;;;;;;4474453;27;655511;-63
2020/12/22 10:02:52;;;;;;;98.03;37.73;;;2.60;99.90;;;;;;4498906;27;658003;-61
2020/12/22 10:05:39;;;;;;;109.90;40.93;;;2.60;99.90;;;;;;4498479;27;655927;-62
2020/12/22 10:08:26;;;;;;;101.77;41.43;;;2.70;99.90;;;;;;4488961;27;658187;-61
2020/12/22 10:11:13;;;;;;;94.30;39.20;;;2.80;99.90;;;;;;4492881;27;656376;-61
2020/12/22 10:14:02;;;;;;;113.57;43.67;;;2.80;99.90;;;;;;4469636;27;655591;-61
2020/12/22 10:16:49;;;;;;;108.75;40.90;;;2.80;99.90;;;;;;4475419;27;656627;-62
2020/12/22 10:19:36;;;;;;;106.37;42.00;;;2.80;99.90;;;;;;4502106;27;657634;-61
2020/12/22 10:22:23;;;;;;;110.97;43.97;;;2.80;99.90;;;;;;4480727;27;656508;-61
2020/12/22 10:25:10;;;;;;;103.33;42.80;;;2.80;99.90;;;;;;4476716;27;656766;-61
2020/12/22 10:27:57;;;;;;;103.10;42.50;;;2.80;99.90;;;;;;4490862;27;656540;-61
2020/12/22 10:30:45;;;;;;;101.30;41.40;;;2.70;99.90;;;;;;4478422;27;657825;-62
2020/12/22 10:33:32;;;;;;;97.27;40.90;;;2.70;99.90;;;;;;4491943;27;656859;-61
2020/12/22 10:36:22;;;;;;;93.47;39.57;;;2.70;99.90;;;;;;4479665;27;655508;-61
2020/12/22 10:39:09;;;;;;;100.50;38.90;;;2.70;99.90;;;;;;4483328;27;655713;-62
2020/12/22 10:41:56;;;;;;;85.57;36.63;;;2.70;99.90;;;;;;4501312;27;656572;-61
2020/12/22 10:44:43;;;;;;;88.47;35.90;;;2.70;99.90;;;;;;4493539;27;655343;-61
2020/12/22 10:47:31;;;;;;;88.87;37.37;;;2.70;99.90;;;;;;4481281;27;655766;-61
2020/12/22 10:50:19;;;;;;;83.33;35.10;;;2.70;99.90;;;;;;4486406;27;656086;-60
2020/12/22 10:53:06;;;;;;;89.23;37.73;;;2.70;99.90;;;;;;4467116;27;657742;-62
2020/12/22 10:55:54;;;;;;;83.33;35.93;;;2.70;99.90;;;;;;4483140;27;656178;-60
2020/12/22 10:58:41;;;;;;;90.20;36.93;;;2.70;99.90;;;;;;4459194;27;657000;-61
2020/12/22 11:01:28;;;;;;;87.70;38.37;;;2.60;99.90;;;;;;4493481;27;656235;-61
2020/12/22 11:04:16;;;;;;;84.40;35.80;;;2.60;99.90;;;;;;4469562;27;655704;-61
2020/12/22 11:07:07;;;;;;;92.60;36.73;;;2.60;99.90;;;;;;4494364;27;655928;-61
2020/12/22 11:09:54;;;;;;;91.90;36.53;;;2.70;99.90;;;;;;4449398;27;655429;-61
2020/12/22 11:12:41;;;;;;;90.70;35.73;;;2.70;99.90;;;;;;4494637;27;656687;-61
2020/12/22 11:15:28;;;;;;;81.17;33.60;;;2.70;99.90;;;;;;4491089;27;656691;-60
2020/12/22 11:18:16;;;;;;;83.13;35.13;;;2.70;99.90;;;;;;4476425;27;655635;-60
2020/12/22 11:21:08;;;;;;;85.68;34.65;;;2.70;99.90;;;;;;4484183;27;655602;-61
2020/12/22 11:23:56;;;;;;;78.73;33.63;;;2.80;99.90;;;;;;4453565;27;656524;-61
2020/12/22 11:26:43;;;;;;;81.53;34.87;;;2.80;99.90;;;;;;4491404;27;655306;-61
2020/12/22 11:29:30;;;;;;;83.53;36.17;;;2.80;99.90;;;;;;4476882;27;655566;-61
2020/12/22 11:32:17;;;;;;;89.87;36.63;;;2.90;99.90;;;;;;4491730;27;657031;-61
2020/12/22 11:35:04;;;;;;;93.53;38.72;;;2.90;99.90;;;;;;4478430;27;656405;-62
2020/12/22 11:37:52;;;;;;;88.17;39.00;;;3.00;99.90;;;;;;4497606;27;656608;-61
2020/12/22 11:40:39;;;;;;;89.40;39.00;;;3.00;99.90;;;;;;4484431;27;655748;-62
2020/12/22 11:43:26;;;;;;;97.80;41.93;;;3.10;99.90;;;;;;4500826;27;656438;-61
2020/12/22 11:46:13;;;;;;;122.97;50.63;;;3.30;99.90;;;;;;4492654;27;655703;-60
2020/12/22 11:49:00;;;;;;;120.60;49.90;;;3.40;99.90;;;;;;4461694;27;656547;-61
2020/12/22 11:51:47;;;;;;;103.77;44.13;;;3.50;99.90;;;;;;4489082;27;658626;-61
2020/12/22 11:54:35;;;;;;;120.70;48.70;;;3.50;99.90;;;;;;4474352;27;656561;-62
2020/12/22 11:57:22;;;;;;;146.80;52.10;;;3.60;99.90;;;;;;4497099;27;657178;-61
2020/12/22 12:00:09;;;;;;;125.53;47.90;;;3.70;99.90;;;;;;4465455;27;656634;-61
2020/12/22 12:02:56;;;;;;;107.50;44.53;;;3.70;99.90;;;;;;4496888;27;657347;-61
2020/12/22 12:05:43;;;;;;;112.37;45.23;;;3.70;99.90;;;;;;4493277;27;657248;-61
2020/12/22 12:08:30;;;;;;;119.07;47.83;;;3.70;99.90;;;;;;4479769;27;656423;-61
2020/12/22 12:11:18;;;;;;;122.60;49.00;;;3.80;99.90;;;;;;4487428;27;657268;-61
2020/12/22 12:14:05;;;;;;;126.10;50.53;;;3.80;99.90;;;;;;4476779;27;656764;-61
2020/12/22 12:16:52;;;;;;;114.70;48.20;;;3.80;99.90;;;;;;4485563;27;657762;-61
2020/12/22 12:19:39;;;;;;;120.73;47.83;;;3.80;99.90;;;;;;4475215;27;657035;-62
2020/12/22 12:22:26;;;;;;;118.57;48.23;;;3.70;99.90;;;;;;4498431;27;657977;-61
2020/12/22 12:25:13;;;;;;;126.80;50.67;;;3.70;99.90;;;;;;4497155;27;656902;-61
2020/12/22 12:28:01;;;;;;;122.93;51.27;;;3.70;99.90;;;;;;4475271;27;656536;-61
2020/12/22 12:30:48;;;;;;;111.93;46.93;;;3.70;99.90;;;;;;4475182;27;657229;-61
2020/12/22 12:33:35;;;;;;;111.97;43.73;;;3.60;99.90;;;;;;4482041;27;657034;-61
2020/12/22 12:36:22;;;;;;;119.60;45.47;;;3.60;99.90;;;;;;4500253;27;657702;-61
2020/12/22 12:39:09;;;;;;;126.53;50.23;;;3.60;99.90;;;;;;4474906;27;656423;-62
2020/12/22 12:41:56;;;;;;;131.03;50.60;;;3.60;99.90;;;;;;4496333;27;658021;-61
2020/12/22 12:44:44;;;;;;;142.47;52.80;;;3.60;99.90;;;;;;4492882;27;656503;-62
2020/12/22 12:47:31;;;;;;;119.50;48.43;;;3.60;99.90;;;;;;4473237;27;658294;-61
2020/12/22 12:50:18;;;;;;;124.57;49.03;;;3.60;99.90;;;;;;4496107;27;656962;-60
2020/12/22 12:53:05;;;;;;;115.27;45.10;;;3.60;99.90;;;;;;4472627;27;657070;-60
2020/12/22 12:55:52;;;;;;;98.32;42.88;;;3.60;99.90;;;;;;4489650;27;657648;-60
2020/12/22 12:58:40;;;;;;;103.90;42.93;;;3.60;99.90;;;;;;4471048;27;655441;-61
2020/12/22 13:01:28;;;;;;;116.25;47.70;;;3.50;99.90;;;;;;4502031;27;657297;-61
2020/12/22 13:04:15;;;;;;;128.87;48.83;;;3.50;99.90;;;;;;4480743;27;657026;-61
2020/12/22 13:07:02;;;;;;;135.47;49.47;;;3.50;99.90;;;;;;4502517;27;658082;-60
2020/12/22 13:09:49;;;;;;;150.73;56.27;;;3.50;99.90;;;;;;4477337;27;656737;-62
2020/12/22 13:12:36;;;;;;;152.17;55.00;;;3.50;99.90;;;;;;4485342;27;657545;-61
2020/12/22 13:15:23;;;;;;;142.47;54.20;;;3.50;99.90;;;;;;4484036;27;656659;-61
2020/12/22 13:18:11;;;;;;;129.90;53.07;;;3.50;99.90;;;;;;4469893;27;657698;-61
2020/12/22 13:20:58;;;;;;;137.53;53.33;;;3.60;99.90;;;;;;4487927;27;657107;-61
2020/12/22 13:23:45;;;;;;;121.47;48.30;;;3.70;99.90;;;;;;4477190;27;656901;-61
2020/12/22 13:26:36;;;;;;;123.10;49.33;;;3.80;99.90;;;;;;4485909;27;657650;-61
2020/12/22 13:29:23;;;;;;;109.97;47.80;;;4.00;99.90;;;;;;4473035;27;656264;-61
2020/12/22 13:32:11;;;;;;;109.30;48.20;;;4.00;99.90;;;;;;4468395;27;657091;-62
2020/12/22 13:34:58;;;;;;;114.13;48.43;;;4.10;99.90;;;;;;4494819;27;656826;-61
2020/12/22 13:37:45;;;;;;;116.47;49.37;;;4.10;99.90;;;;;;4465672;27;658414;-61
2020/12/22 13:40:32;;;;;;;107.20;45.37;;;4.10;99.90;;;;;;4494576;27;656729;-61
2020/12/22 13:43:19;;;;;;;98.27;40.50;;;4.30;99.90;;;;;;4470299;27;656819;-61
2020/12/22 13:46:06;;;;;;;113.73;47.90;;;4.40;99.90;;;;;;4495938;27;656246;-61
2020/12/22 13:48:54;;;;;;;105.80;47.03;;;4.30;99.90;;;;;;4485712;27;656551;-62
2020/12/22 13:51:42;;;;;;;104.30;48.17;;;4.30;99.90;;;;;;4495647;27;656471;-61
2020/12/22 13:54:30;;;;;;;111.07;49.10;;;4.40;99.90;;;;;;4476360;27;657190;-62